Time;durP1;ratioP1;P1;durP2;ratioP2;P2;SDS_P1;SDS_P2;PMS_P1;PMS_P2;Temp;Humidity;BMP_temperature;BMP_pressure;BME280_temperature;BME280_humidity;BME280_pressure;Samples;Min_cycle;Max_cycle;Signal;HPM_P1;HPM_P2
2022/06/26 00:00:22;;;;;;;1.95;1.35;;;24.00;99.90;;;;;;1046730;28;20031;-64
2022/06/26 00:00:53;;;;;;;1.57;1.30;;;24.00;99.90;;;;;;1047976;28;20040;-64
2022/06/26 00:01:23;;;;;;;1.87;1.27;;;24.00;99.90;;;;;;1047426;28;20025;-64
2022/06/26 00:01:54;;;;;;;1.10;1.00;;;24.00;99.90;;;;;;1047698;28;20064;-64
2022/06/26 00:02:25;;;;;;;1.30;1.20;;;24.00;99.90;;;;;;1045374;28;20131;-64
2022/06/26 00:02:56;;;;;;;1.33;1.20;;;24.00;99.90;;;;;;1043359;28;20929;-64
2022/06/26 00:03:27;;;;;;;1.80;1.30;;;24.00;99.90;;;;;;1038848;28;20100;-64
2022/06/26 00:03:58;;;;;;;1.30;1.20;;;24.00;99.90;;;;;;1039464;28;20026;-64
2022/06/26 00:04:29;;;;;;;1.33;1.10;;;24.00;99.90;;;;;;1042894;28;20472;-64
2022/06/26 00:05:00;;;;;;;1.88;1.30;;;24.00;99.90;;;;;;1044832;28;20571;-64
2022/06/26 00:05:31;;;;;;;2.10;1.50;;;24.00;99.90;;;;;;1042903;28;20021;-64
2022/06/26 00:06:02;;;;;;;1.30;1.00;;;24.00;99.90;;;;;;1039054;28;20056;-64
2022/06/26 00:06:32;;;;;;;3.20;1.30;;;24.00;99.90;;;;;;1034915;28;20129;-64
2022/06/26 00:07:03;;;;;;;1.50;1.40;;;24.00;99.90;;;;;;1039005;28;20025;-64
2022/06/26 00:07:34;;;;;;;1.20;1.10;;;24.00;99.90;;;;;;1042996;28;20016;-65
2022/06/26 00:08:06;;;;;;;1.77;1.45;;;23.90;99.90;;;;;;1047652;28;20017;-65
2022/06/26 00:08:37;;;;;;;1.55;1.20;;;24.00;99.90;;;;;;1047398;28;20026;-64
2022/06/26 00:09:07;;;;;;;1.63;1.30;;;24.00;99.90;;;;;;1047965;28;20162;-65
2022/06/26 00:09:38;;;;;;;1.73;1.30;;;23.90;99.90;;;;;;1047344;28;20013;-64
2022/06/26 00:10:09;;;;;;;1.90;1.30;;;24.00;99.90;;;;;;1047326;28;20027;-64
2022/06/26 00:10:41;;;;;;;1.93;1.30;;;24.00;99.90;;;;;;1042779;28;20806;-64
2022/06/26 00:11:11;;;;;;;1.40;1.10;;;23.90;99.90;;;;;;1043562;28;20023;-65
2022/06/26 00:11:42;;;;;;;2.97;1.47;;;23.90;99.90;;;;;;1042854;28;20155;-65
2022/06/26 00:12:13;;;;;;;3.47;1.77;;;23.90;99.90;;;;;;1043970;28;20013;-64
2022/06/26 00:12:43;;;;;;;1.03;0.90;;;23.90;99.90;;;;;;1043226;28;20092;-64
2022/06/26 00:13:15;;;;;;;1.30;1.17;;;23.90;99.90;;;;;;1043672;28;20450;-64
2022/06/26 00:13:45;;;;;;;1.85;1.20;;;23.90;99.90;;;;;;1043426;28;20013;-64
2022/06/26 00:14:16;;;;;;;2.53;1.80;;;23.90;99.90;;;;;;1047205;28;20025;-64
2022/06/26 00:14:46;;;;;;;1.17;1.07;;;23.90;99.90;;;;;;1047674;28;20461;-64
2022/06/26 00:15:17;;;;;;;1.20;1.10;;;23.90;99.90;;;;;;1047721;28;20013;-64
2022/06/26 00:15:48;;;;;;;1.87;1.60;;;23.90;99.90;;;;;;1047622;28;20016;-64
2022/06/26 00:16:19;;;;;;;1.53;1.30;;;23.90;99.90;;;;;;1047718;28;20814;-65
2022/06/26 00:16:50;;;;;;;1.20;0.98;;;23.90;99.90;;;;;;1047733;28;20032;-65
2022/06/26 00:17:21;;;;;;;2.13;0.87;;;23.90;99.90;;;;;;1047503;28;20047;-64
2022/06/26 00:17:53;;;;;;;1.60;1.00;;;23.90;99.90;;;;;;1047279;28;20013;-64
2022/06/26 00:18:23;;;;;;;3.72;1.60;;;23.90;99.90;;;;;;1047097;28;20091;-64
2022/06/26 00:18:55;;;;;;;1.03;0.93;;;23.90;99.90;;;;;;1047402;28;20020;-65
2022/06/26 00:19:26;;;;;;;1.60;1.27;;;23.80;99.90;;;;;;1047301;28;20009;-64
2022/06/26 00:19:57;;;;;;;1.30;1.20;;;23.90;99.90;;;;;;1047345;28;20013;-65
2022/06/26 00:20:29;;;;;;;1.43;1.33;;;23.90;99.90;;;;;;1047603;28;20016;-65
2022/06/26 00:21:00;;;;;;;1.38;1.27;;;23.90;99.90;;;;;;1047631;28;20047;-65
2022/06/26 00:21:31;;;;;;;1.35;1.13;;;23.90;99.90;;;;;;1047608;28;20044;-64
2022/06/26 00:22:05;;;;;;;1.52;1.27;;;23.90;99.90;;;;;;1047336;28;20165;-64
2022/06/26 00:22:36;;;;;;;1.77;1.10;;;23.90;99.90;;;;;;1046971;28;20623;-64
2022/06/26 00:23:07;;;;;;;2.70;1.20;;;23.90;99.90;;;;;;1047650;28;20385;-64
2022/06/26 00:23:37;;;;;;;1.10;0.90;;;23.80;99.90;;;;;;1046957;28;20017;-64
2022/06/26 00:24:08;;;;;;;1.30;1.17;;;23.80;99.90;;;;;;1047902;28;20012;-64
2022/06/26 00:24:41;;;;;;;1.33;1.23;;;23.90;99.90;;;;;;1047242;28;20012;-65
2022/06/26 00:25:12;;;;;;;1.83;1.08;;;23.90;99.90;;;;;;1047751;28;20051;-64
2022/06/26 00:25:43;;;;;;;1.75;1.00;;;23.90;99.90;;;;;;1047395;28;20029;-64
2022/06/26 00:26:14;;;;;;;1.35;1.10;;;23.90;99.90;;;;;;1047248;28;20163;-65
2022/06/26 00:26:45;;;;;;;1.93;1.30;;;23.80;99.90;;;;;;1047028;28;20023;-66
2022/06/26 00:27:15;;;;;;;1.43;1.00;;;23.90;99.90;;;;;;1047458;28;20016;-63
2022/06/26 00:27:46;;;;;;;1.33;1.10;;;23.80;99.90;;;;;;1047081;28;20094;-63
2022/06/26 00:28:17;;;;;;;1.73;1.27;;;23.90;99.90;;;;;;1047253;28;20407;-63
2022/06/26 00:28:48;;;;;;;0.83;0.80;;;23.90;99.90;;;;;;1047099;28;20539;-63
2022/06/26 00:29:18;;;;;;;2.00;1.50;;;23.90;99.90;;;;;;1043375;28;20024;-64
2022/06/26 00:29:49;;;;;;;2.10;1.13;;;23.90;99.90;;;;;;1042915;28;20728;-64
2022/06/26 00:30:19;;;;;;;2.20;1.63;;;23.90;99.90;;;;;;1043308;28;20074;-63
2022/06/26 00:30:50;;;;;;;1.33;1.20;;;23.90;99.90;;;;;;1042919;28;20021;-64
2022/06/26 00:31:20;;;;;;;1.63;1.10;;;23.80;99.90;;;;;;1043533;28;20025;-63
2022/06/26 00:31:51;;;;;;;2.10;1.20;;;23.80;99.90;;;;;;1043308;28;20108;-65
2022/06/26 00:32:22;;;;;;;2.70;1.73;;;23.80;99.90;;;;;;1043586;28;20032;-63
2022/06/26 00:32:52;;;;;;;2.28;1.65;;;23.80;99.90;;;;;;1043329;28;20012;-63
2022/06/26 00:33:23;;;;;;;2.00;1.37;;;23.80;99.90;;;;;;1043691;28;20028;-65
2022/06/26 00:33:53;;;;;;;1.83;1.20;;;23.80;99.90;;;;;;1043229;28;20071;-63
2022/06/26 00:34:24;;;;;;;1.43;1.00;;;23.80;99.90;;;;;;1043704;28;20110;-64
2022/06/26 00:34:55;;;;;;;1.70;1.30;;;23.80;99.90;;;;;;1043064;28;20020;-63
2022/06/26 00:35:26;;;;;;;1.38;1.10;;;23.80;99.90;;;;;;1043147;28;20029;-63
2022/06/26 00:35:57;;;;;;;1.77;1.10;;;23.80;99.90;;;;;;1042926;28;20021;-63
2022/06/26 00:36:28;;;;;;;1.70;1.40;;;23.80;99.90;;;;;;1039072;28;20621;-65
2022/06/26 00:36:58;;;;;;;2.77;1.20;;;23.80;99.90;;;;;;1038958;28;20353;-64
2022/06/26 00:37:29;;;;;;;2.97;1.40;;;23.80;99.90;;;;;;1043235;28;20028;-65
2022/06/26 00:38:00;;;;;;;3.03;1.13;;;23.80;99.90;;;;;;1042772;28;20506;-65
2022/06/26 00:38:30;;;;;;;1.77;1.10;;;23.80;99.90;;;;;;1043647;28;20021;-64
2022/06/26 00:39:01;;;;;;;1.27;1.17;;;23.80;99.90;;;;;;1042830;28;20499;-65
2022/06/26 00:39:32;;;;;;;2.20;1.30;;;23.80;99.90;;;;;;1043338;28;20031;-65
2022/06/26 00:40:03;;;;;;;1.88;1.25;;;23.80;99.90;;;;;;1038793;28;20025;-65
2022/06/26 00:40:34;;;;;;;2.63;1.40;;;23.70;99.90;;;;;;1042772;28;20028;-65
2022/06/26 00:41:05;;;;;;;1.03;0.93;;;23.80;99.90;;;;;;1047270;28;20009;-66
2022/06/26 00:41:38;;;;;;;2.85;1.20;;;23.70;99.90;;;;;;1047166;28;20535;-65
2022/06/26 00:42:09;;;;;;;1.38;1.10;;;23.80;99.90;;;;;;1047317;28;20386;-65
2022/06/26 00:42:41;;;;;;;1.20;1.10;;;23.80;99.90;;;;;;1047449;28;20427;-64
2022/06/26 00:43:11;;;;;;;1.38;1.05;;;23.70;99.90;;;;;;1043594;28;20076;-65
2022/06/26 00:43:42;;;;;;;2.47;1.40;;;23.70;99.90;;;;;;1047043;28;20126;-65
2022/06/26 00:44:18;;;;;;;1.37;1.10;;;23.70;99.90;;;;;;1047230;28;20020;-65
2022/06/26 00:44:52;;;;;;;1.48;1.08;;;23.80;99.90;;;;;;1047141;28;20039;-65
2022/06/26 00:45:22;;;;;;;1.30;1.20;;;23.70;99.90;;;;;;1047273;28;20021;-65
2022/06/26 00:45:53;;;;;;;1.43;1.30;;;23.70;99.90;;;;;;1047535;28;20141;-65
2022/06/26 00:46:24;;;;;;;2.15;1.38;;;23.70;99.90;;;;;;1046741;28;20115;-65
2022/06/26 00:46:55;;;;;;;1.27;1.17;;;23.70;99.90;;;;;;1047267;28;20023;-65
2022/06/26 00:47:25;;;;;;;2.23;1.40;;;23.70;99.90;;;;;;1047023;28;20021;-65
2022/06/26 00:47:56;;;;;;;1.30;1.20;;;23.70;99.90;;;;;;1044488;28;20492;-65
2022/06/26 00:48:27;;;;;;;1.47;1.10;;;23.70;99.90;;;;;;1043115;28;20079;-65
2022/06/26 00:48:57;;;;;;;1.77;1.30;;;23.70;99.90;;;;;;1038985;28;20022;-65
2022/06/26 00:49:28;;;;;;;1.27;0.83;;;23.70;99.90;;;;;;1039053;28;20088;-65
2022/06/26 00:49:59;;;;;;;1.08;0.98;;;23.70;99.90;;;;;;1043071;28;20040;-64
2022/06/26 00:50:29;;;;;;;1.53;1.07;;;23.70;99.90;;;;;;1043120;28;20546;-65
2022/06/26 00:51:00;;;;;;;1.10;1.00;;;23.70;99.90;;;;;;1043358;28;20067;-64
2022/06/26 00:51:31;;;;;;;1.47;1.03;;;23.70;99.90;;;;;;1042917;28;20025;-65
2022/06/26 00:52:02;;;;;;;1.50;1.40;;;23.70;99.90;;;;;;1042950;28;20017;-64
2022/06/26 00:52:33;;;;;;;3.33;1.52;;;23.70;99.90;;;;;;1043157;28;20039;-64
2022/06/26 00:53:04;;;;;;;1.75;1.30;;;23.70;99.90;;;;;;1042983;28;20031;-65
2022/06/26 00:53:35;;;;;;;1.80;1.33;;;23.70;99.90;;;;;;1043007;28;20017;-68
2022/06/26 00:54:07;;;;;;;2.37;1.30;;;23.70;99.90;;;;;;1043022;28;20739;-64
2022/06/26 00:54:38;;;;;;;1.70;1.30;;;23.60;99.90;;;;;;1042997;28;20013;-64
2022/06/26 00:55:09;;;;;;;1.40;1.30;;;23.70;99.90;;;;;;1042949;28;20036;-64
2022/06/26 00:55:40;;;;;;;0.98;0.95;;;23.60;99.90;;;;;;1043210;28;20025;-64
2022/06/26 00:56:11;;;;;;;1.40;1.27;;;23.60;99.90;;;;;;1043471;28;20053;-64
2022/06/26 00:56:41;;;;;;;1.17;1.00;;;23.60;99.90;;;;;;1043374;28;20036;-64
2022/06/26 00:57:12;;;;;;;1.17;1.07;;;23.60;99.90;;;;;;1043242;28;20029;-64
2022/06/26 00:57:43;;;;;;;1.30;1.00;;;23.70;99.90;;;;;;1043348;28;20036;-65
2022/06/26 00:58:15;;;;;;;1.97;1.40;;;23.60;99.90;;;;;;1043410;28;20467;-64
2022/06/26 00:58:46;;;;;;;2.75;1.35;;;23.70;99.90;;;;;;1043343;28;20063;-64
2022/06/26 00:59:17;;;;;;;1.30;1.20;;;23.60;99.90;;;;;;1043238;28;20033;-64
2022/06/26 00:59:49;;;;;;;2.50;1.33;;;23.60;99.90;;;;;;1043379;28;20025;-64
2022/06/26 01:00:20;;;;;;;1.52;1.27;;;23.60;99.90;;;;;;1043209;28;20029;-64
2022/06/26 01:00:50;;;;;;;1.43;1.17;;;23.60;99.90;;;;;;1043491;28;20028;-64
2022/06/26 01:01:21;;;;;;;3.03;1.47;;;23.60;99.90;;;;;;1043104;28;20393;-64
2022/06/26 01:01:52;;;;;;;1.37;1.20;;;23.60;99.90;;;;;;1043509;28;20053;-64
2022/06/26 01:02:23;;;;;;;1.20;1.10;;;23.60;99.90;;;;;;1043205;28;20472;-64
2022/06/26 01:02:53;;;;;;;1.27;1.10;;;23.60;99.90;;;;;;1043413;28;20067;-64
2022/06/26 01:03:24;;;;;;;2.13;1.30;;;23.60;99.90;;;;;;1043340;28;20690;-64
2022/06/26 01:03:54;;;;;;;1.77;1.10;;;23.60;99.90;;;;;;1043038;28;20032;-64
2022/06/26 01:04:25;;;;;;;1.00;0.90;;;23.60;99.90;;;;;;1042948;28;20017;-65
2022/06/26 01:04:56;;;;;;;1.20;1.10;;;23.60;99.90;;;;;;1044081;28;20504;-64
2022/06/26 01:05:26;;;;;;;1.67;1.30;;;23.60;99.90;;;;;;1047003;28;20019;-65
2022/06/26 01:05:57;;;;;;;1.50;1.20;;;23.60;99.90;;;;;;1047504;28;20009;-65
2022/06/26 01:06:29;;;;;;;1.77;1.33;;;23.60;99.90;;;;;;1047200;28;20017;-63
2022/06/26 01:07:00;;;;;;;2.03;1.20;;;23.60;99.90;;;;;;1047066;28;20016;-63
2022/06/26 01:07:31;;;;;;;1.67;1.20;;;23.60;99.90;;;;;;1047267;28;20161;-63
2022/06/26 01:08:03;;;;;;;1.52;1.30;;;23.60;99.90;;;;;;1047499;28;20027;-64
2022/06/26 01:08:35;;;;;;;1.77;1.50;;;23.60;99.90;;;;;;1047346;28;20337;-63
2022/06/26 01:09:06;;;;;;;1.83;1.20;;;23.60;99.90;;;;;;1047654;28;20628;-62
2022/06/26 01:09:36;;;;;;;1.40;1.30;;;23.60;99.90;;;;;;1047155;28;20503;-63
2022/06/26 01:10:07;;;;;;;1.40;1.30;;;23.60;99.90;;;;;;1047645;28;20092;-63
2022/06/26 01:10:38;;;;;;;2.50;1.80;;;23.50;99.90;;;;;;1047088;28;20784;-63
2022/06/26 01:11:18;;;;;;;1.85;1.27;;;23.60;99.90;;;;;;1047465;28;20466;-63
2022/06/26 01:11:50;;;;;;;1.45;1.33;;;23.60;99.90;;;;;;1047085;28;20794;-63
2022/06/26 01:12:21;;;;;;;1.40;1.30;;;23.60;99.90;;;;;;1047544;28;20535;-63
2022/06/26 01:12:52;;;;;;;1.30;1.20;;;23.50;99.90;;;;;;1046751;28;20387;-63
2022/06/26 01:13:23;;;;;;;2.67;1.77;;;23.60;99.90;;;;;;1047149;28;20486;-63
2022/06/26 01:13:56;;;;;;;2.30;1.70;;;23.60;99.90;;;;;;1046692;28;20017;-63
2022/06/26 01:14:26;;;;;;;1.60;1.20;;;23.50;99.90;;;;;;1046931;28;20262;-63
2022/06/26 01:14:58;;;;;;;1.50;1.17;;;23.60;99.90;;;;;;1043736;28;20013;-65
2022/06/26 01:15:29;;;;;;;1.58;1.42;;;23.50;99.90;;;;;;1047573;28;20120;-64
2022/06/26 01:15:59;;;;;;;1.10;0.90;;;23.50;99.90;;;;;;1047165;28;20061;-65
2022/06/26 01:16:31;;;;;;;1.33;1.10;;;23.50;99.90;;;;;;1047348;28;20438;-64
2022/06/26 01:17:01;;;;;;;1.73;1.52;;;23.50;99.90;;;;;;1047211;28;20084;-65
2022/06/26 01:17:33;;;;;;;1.93;1.23;;;23.50;99.90;;;;;;1047250;28;20016;-63
2022/06/26 01:18:04;;;;;;;1.30;1.10;;;23.50;99.90;;;;;;1047188;28;20005;-65
2022/06/26 01:18:35;;;;;;;2.05;1.20;;;23.50;99.90;;;;;;1047545;28;20107;-63
2022/06/26 01:19:06;;;;;;;2.07;1.30;;;23.50;99.90;;;;;;1047293;28;20024;-64
2022/06/26 01:19:37;;;;;;;1.45;1.35;;;23.50;99.90;;;;;;1047352;28;20019;-63
2022/06/26 01:20:09;;;;;;;2.15;1.48;;;23.50;99.90;;;;;;1047466;28;20027;-63
2022/06/26 01:20:40;;;;;;;1.73;1.63;;;23.50;99.90;;;;;;1047240;28;20421;-64
2022/06/26 01:21:11;;;;;;;2.13;1.52;;;23.50;99.90;;;;;;1047241;28;20505;-64
2022/06/26 01:21:42;;;;;;;1.57;1.30;;;23.50;99.90;;;;;;1047388;28;20554;-64
2022/06/26 01:22:13;;;;;;;1.58;1.33;;;23.50;99.90;;;;;;1047276;28;20087;-65
2022/06/26 01:22:44;;;;;;;1.57;1.40;;;23.50;99.90;;;;;;1047451;28;20020;-64
2022/06/26 01:23:14;;;;;;;1.70;1.30;;;23.50;99.90;;;;;;1046983;28;20009;-63
2022/06/26 01:23:46;;;;;;;1.77;1.47;;;23.50;99.90;;;;;;1047057;28;20462;-65
2022/06/26 01:24:17;;;;;;;1.52;1.42;;;23.50;99.90;;;;;;1046881;28;20348;-63
2022/06/26 01:24:48;;;;;;;1.55;1.30;;;23.50;99.90;;;;;;1043170;28;20040;-63
2022/06/26 01:25:18;;;;;;;1.73;1.10;;;23.50;99.90;;;;;;1046738;28;20020;-63
2022/06/26 01:25:49;;;;;;;2.10;1.30;;;23.50;99.90;;;;;;1047167;28;20021;-63
2022/06/26 01:26:21;;;;;;;1.83;1.10;;;23.50;99.90;;;;;;1046918;28;20016;-65
2022/06/26 01:26:52;;;;;;;3.50;1.30;;;23.50;99.90;;;;;;1046996;28;20505;-65
2022/06/26 01:27:22;;;;;;;1.27;1.08;;;23.50;99.90;;;;;;1046867;28;20016;-65
2022/06/26 01:27:53;;;;;;;1.20;1.10;;;23.50;99.90;;;;;;1047156;28;20036;-64
2022/06/26 01:28:24;;;;;;;1.37;1.13;;;23.50;99.90;;;;;;1046988;28;20070;-65
2022/06/26 01:28:55;;;;;;;1.63;1.10;;;23.40;99.90;;;;;;1046949;28;20084;-65
2022/06/26 01:29:26;;;;;;;1.73;1.40;;;23.40;99.90;;;;;;1047104;28;20739;-64
2022/06/26 01:29:56;;;;;;;1.23;1.00;;;23.40;99.90;;;;;;1047050;28;20008;-63
2022/06/26 01:30:27;;;;;;;1.33;1.10;;;23.50;99.90;;;;;;1047057;28;20250;-63
2022/06/26 01:30:58;;;;;;;1.10;1.00;;;23.50;99.90;;;;;;1047340;28;20009;-63
2022/06/26 01:31:28;;;;;;;1.27;1.17;;;23.40;99.90;;;;;;1047356;28;20020;-63
2022/06/26 01:31:59;;;;;;;2.20;1.37;;;23.50;99.90;;;;;;1047264;28;20020;-63
2022/06/26 01:32:30;;;;;;;2.13;1.13;;;23.40;99.90;;;;;;1047483;28;20008;-63
2022/06/26 01:33:01;;;;;;;1.37;1.20;;;23.50;99.90;;;;;;1047146;28;20009;-63
2022/06/26 01:33:33;;;;;;;2.65;1.25;;;23.40;99.90;;;;;;1042791;28;20017;-63
2022/06/26 01:34:09;;;;;;;1.33;1.10;;;23.40;99.90;;;;;;1038572;28;20112;-63
2022/06/26 01:34:39;;;;;;;2.15;1.23;;;23.40;99.90;;;;;;1038584;28;20016;-63
2022/06/26 01:35:10;;;;;;;1.93;1.13;;;23.40;99.90;;;;;;1041039;28;20022;-63
2022/06/26 01:35:41;;;;;;;0.97;0.90;;;23.40;99.90;;;;;;1046956;28;20028;-66
2022/06/26 01:36:12;;;;;;;1.27;1.17;;;23.40;99.90;;;;;;1047380;28;20099;-64
2022/06/26 01:36:42;;;;;;;1.10;1.00;;;23.40;99.90;;;;;;1046771;28;20549;-64
2022/06/26 01:37:13;;;;;;;1.27;1.03;;;23.40;99.90;;;;;;1046884;28;20794;-64
2022/06/26 01:37:43;;;;;;;2.03;1.00;;;23.40;99.90;;;;;;1046930;28;20016;-64
2022/06/26 01:38:23;;;;;;;2.10;1.20;;;23.40;99.90;;;;;;1046838;28;20403;-64
2022/06/26 01:38:53;;;;;;;1.45;1.35;;;23.50;99.90;;;;;;1047241;28;20070;-64
2022/06/26 01:39:24;;;;;;;1.37;1.17;;;23.50;99.90;;;;;;1047456;28;20070;-64
2022/06/26 01:39:54;;;;;;;1.63;1.00;;;23.40;99.90;;;;;;1047244;28;20020;-65
2022/06/26 01:40:25;;;;;;;1.40;1.13;;;23.40;99.90;;;;;;1047281;28;20016;-64
2022/06/26 01:40:57;;;;;;;1.33;1.17;;;23.40;99.90;;;;;;1047394;28;20364;-64
2022/06/26 01:41:27;;;;;;;1.05;0.95;;;23.50;99.90;;;;;;1047243;28;20020;-64
2022/06/26 01:41:59;;;;;;;1.07;0.97;;;23.40;99.90;;;;;;1047335;28;20017;-64
2022/06/26 01:42:30;;;;;;;1.55;1.20;;;23.40;99.90;;;;;;1047224;28;20013;-64
2022/06/26 01:43:00;;;;;;;1.55;1.17;;;23.40;99.90;;;;;;1047465;28;20165;-64
2022/06/26 01:43:33;;;;;;;1.13;1.03;;;23.40;99.90;;;;;;1047105;28;20141;-63
2022/06/26 01:44:07;;;;;;;1.88;1.50;;;23.50;99.90;;;;;;1047361;28;20043;-65
2022/06/26 01:44:38;;;;;;;1.60;1.10;;;23.40;99.90;;;;;;1046788;28;20558;-63
2022/06/26 01:45:09;;;;;;;1.20;1.10;;;23.40;99.90;;;;;;1047072;28;20032;-65
2022/06/26 01:45:44;;;;;;;1.88;1.40;;;23.40;99.90;;;;;;1046419;28;20041;-64
2022/06/26 01:46:16;;;;;;;1.77;1.38;;;23.40;99.90;;;;;;1046866;28;20020;-64
2022/06/26 01:46:46;;;;;;;1.50;1.33;;;23.40;99.90;;;;;;1046919;28;20469;-65
2022/06/26 01:47:17;;;;;;;2.10;1.20;;;23.40;99.90;;;;;;1046897;28;20472;-64
2022/06/26 01:47:47;;;;;;;1.40;1.20;;;23.40;99.90;;;;;;1046690;28;20021;-65
2022/06/26 01:48:19;;;;;;;4.20;1.33;;;23.40;99.90;;;;;;1046997;28;20029;-64
2022/06/26 01:48:50;;;;;;;1.33;1.00;;;23.40;99.90;;;;;;1046588;28;20695;-65
2022/06/26 01:49:23;;;;;;;1.47;1.10;;;23.40;99.90;;;;;;1046833;28;20491;-64
2022/06/26 01:49:53;;;;;;;1.25;1.15;;;23.40;99.90;;;;;;1046659;28;20021;-65
2022/06/26 01:50:24;;;;;;;1.60;1.20;;;23.40;99.90;;;;;;1047036;28;20028;-65
2022/06/26 01:50:56;;;;;;;2.67;1.37;;;23.40;99.90;;;;;;1047051;28;20029;-65
2022/06/26 01:51:27;;;;;;;1.88;1.10;;;23.40;99.90;;;;;;1046974;28;20024;-65
2022/06/26 01:51:57;;;;;;;1.33;1.23;;;23.40;99.90;;;;;;1046854;28;20016;-64
2022/06/26 01:52:28;;;;;;;2.40;1.50;;;23.40;99.90;;;;;;1042811;28;20655;-64
2022/06/26 01:52:58;;;;;;;1.73;1.27;;;23.40;99.90;;;;;;1038751;28;20092;-64
2022/06/26 01:53:30;;;;;;;2.07;1.30;;;23.40;99.90;;;;;;1042930;28;20112;-65
2022/06/26 01:54:00;;;;;;;1.10;1.00;;;23.30;99.90;;;;;;1042609;28;20111;-64
2022/06/26 01:54:31;;;;;;;1.73;1.20;;;23.40;99.90;;;;;;1047108;28;20024;-64
2022/06/26 01:55:01;;;;;;;1.50;1.30;;;23.30;99.90;;;;;;1044633;28;20043;-64
2022/06/26 01:55:32;;;;;;;2.23;1.10;;;23.30;99.90;;;;;;1043149;28;20112;-65
2022/06/26 01:56:04;;;;;;;1.10;1.10;;;23.30;99.90;;;;;;1042977;28;20017;-64
2022/06/26 01:56:34;;;;;;;1.65;1.20;;;23.30;99.90;;;;;;1043083;28;20028;-65
2022/06/26 01:57:05;;;;;;;1.23;1.00;;;23.30;99.90;;;;;;1043013;28;20036;-64
2022/06/26 01:57:35;;;;;;;1.53;1.30;;;23.30;99.90;;;;;;1043202;28;20031;-64
2022/06/26 01:58:07;;;;;;;1.17;1.10;;;23.30;99.90;;;;;;1043014;28;20495;-63
2022/06/26 01:58:38;;;;;;;1.88;1.58;;;23.30;99.90;;;;;;1042974;28;20047;-64
2022/06/26 01:59:08;;;;;;;2.67;1.02;;;23.30;99.90;;;;;;1043143;28;20017;-64
2022/06/26 01:59:39;;;;;;;3.20;1.13;;;23.30;99.90;;;;;;1042993;28;20017;-63
2022/06/26 02:00:10;;;;;;;1.03;0.93;;;23.30;99.90;;;;;;1043047;28;20446;-63
2022/06/26 02:00:43;;;;;;;1.10;1.00;;;23.30;99.90;;;;;;1043039;28;20032;-64
2022/06/26 02:01:14;;;;;;;1.40;1.20;;;23.20;99.90;;;;;;1042486;28;20024;-64
2022/06/26 02:01:45;;;;;;;2.50;1.40;;;23.20;99.90;;;;;;1042704;28;20032;-64
2022/06/26 02:02:15;;;;;;;1.27;1.17;;;23.30;99.90;;;;;;1042334;28;20478;-65
2022/06/26 02:02:46;;;;;;;3.07;1.30;;;23.30;99.90;;;;;;1043702;28;20025;-64
2022/06/26 02:03:18;;;;;;;1.13;0.70;;;23.20;99.90;;;;;;1046801;28;20024;-63
2022/06/26 02:03:49;;;;;;;1.00;0.80;;;23.30;99.90;;;;;;1046773;28;20023;-64
2022/06/26 02:04:19;;;;;;;1.27;0.90;;;23.20;99.90;;;;;;1046784;28;20034;-65
2022/06/26 02:04:50;;;;;;;1.53;1.00;;;23.30;99.90;;;;;;1046675;28;20028;-65
2022/06/26 02:05:21;;;;;;;1.90;1.30;;;23.20;99.90;;;;;;1042535;28;20083;-65
2022/06/26 02:05:52;;;;;;;1.23;1.10;;;23.30;99.90;;;;;;1046985;28;20426;-63
2022/06/26 02:06:22;;;;;;;1.20;1.02;;;23.20;99.90;;;;;;1046710;28;20013;-65
2022/06/26 02:06:53;;;;;;;1.60;1.23;;;23.30;99.90;;;;;;1046988;28;20032;-64
2022/06/26 02:07:24;;;;;;;1.43;1.20;;;23.30;99.90;;;;;;1046482;28;20441;-64
2022/06/26 02:07:54;;;;;;;1.20;1.10;;;23.20;99.90;;;;;;1047236;28;20423;-63
2022/06/26 02:08:25;;;;;;;1.37;1.20;;;23.20;99.90;;;;;;1047176;28;20011;-63
2022/06/26 02:08:55;;;;;;;1.67;1.07;;;23.20;99.90;;;;;;1047358;28;20713;-63
2022/06/26 02:13:36;;;;;;;1.50;1.40;;;23.20;99.90;;;;;;1046858;28;20052;-65
2022/06/26 02:14:09;;;;;;;3.20;1.30;;;23.20;99.90;;;;;;1045608;28;20013;-65
2022/06/26 02:14:39;;;;;;;1.60;1.20;;;23.20;99.90;;;;;;1046881;28;20020;-64
2022/06/26 02:15:10;;;;;;;1.67;1.10;;;23.20;99.90;;;;;;1047416;28;20127;-63
2022/06/26 02:15:40;;;;;;;1.03;1.00;;;23.20;99.90;;;;;;1046887;28;20417;-64
2022/06/26 02:16:17;;;;;;;2.70;1.40;;;23.20;99.90;;;;;;1046855;28;20051;-65
2022/06/26 02:16:48;;;;;;;1.42;1.20;;;23.20;99.90;;;;;;1046627;28;20047;-63
2022/06/26 02:17:19;;;;;;;1.33;1.17;;;23.20;99.90;;;;;;1046907;28;20023;-63
2022/06/26 02:17:50;;;;;;;1.98;1.20;;;23.20;99.90;;;;;;1046363;28;20450;-63
2022/06/26 02:18:20;;;;;;;1.37;1.20;;;23.20;99.90;;;;;;1047093;28;20477;-65
2022/06/26 02:18:54;;;;;;;1.63;1.10;;;23.20;99.90;;;;;;1042371;28;20074;-64
2022/06/26 02:19:25;;;;;;;2.40;1.33;;;23.20;99.90;;;;;;1035254;28;20650;-63
2022/06/26 02:19:55;;;;;;;1.27;1.17;;;23.20;99.90;;;;;;1038887;28;20552;-63
2022/06/26 02:20:26;;;;;;;1.53;1.27;;;23.20;99.90;;;;;;1043590;28;20492;-63
2022/06/26 02:20:57;;;;;;;1.23;0.90;;;23.20;99.90;;;;;;1046571;28;20636;-63
2022/06/26 02:21:28;;;;;;;1.30;1.20;;;23.20;99.90;;;;;;1046413;28;20063;-63
2022/06/26 02:21:59;;;;;;;1.48;1.00;;;23.20;99.90;;;;;;1042912;28;20021;-64
2022/06/26 02:22:30;;;;;;;1.27;1.17;;;23.20;99.90;;;;;;1043070;28;20021;-64
2022/06/26 02:23:02;;;;;;;1.30;1.20;;;23.20;99.90;;;;;;1042050;28;20032;-64
2022/06/26 02:23:33;;;;;;;1.17;1.08;;;23.20;99.90;;;;;;1042503;28;20020;-64
2022/06/26 02:24:04;;;;;;;1.17;0.90;;;23.20;99.90;;;;;;1042703;28;20017;-65
2022/06/26 02:24:36;;;;;;;1.57;1.30;;;23.20;99.90;;;;;;1042683;28;20009;-63
2022/06/26 02:25:08;;;;;;;0.90;0.85;;;23.20;99.90;;;;;;1042562;28;20025;-64
2022/06/26 02:25:39;;;;;;;1.50;1.10;;;23.20;99.90;;;;;;1042469;28;20034;-63
2022/06/26 02:26:10;;;;;;;2.05;1.45;;;23.20;99.90;;;;;;1042884;28;20099;-63
2022/06/26 02:26:41;;;;;;;1.65;1.52;;;23.20;99.90;;;;;;1042491;28;20032;-64
2022/06/26 02:27:11;;;;;;;1.60;1.17;;;23.20;99.90;;;;;;1043279;28;20033;-64
2022/06/26 02:27:42;;;;;;;1.63;1.30;;;23.10;99.90;;;;;;1042323;28;20055;-63
2022/06/26 02:28:13;;;;;;;1.37;1.27;;;23.20;99.90;;;;;;1043023;28;20025;-64
2022/06/26 02:28:46;;;;;;;1.67;1.30;;;23.10;99.90;;;;;;1042401;28;20021;-64
2022/06/26 02:29:16;;;;;;;1.40;1.30;;;23.10;99.90;;;;;;1042984;28;20107;-64
2022/06/26 02:29:47;;;;;;;1.57;1.20;;;23.20;99.90;;;;;;1042189;28;20072;-64
2022/06/26 02:30:17;;;;;;;1.37;1.00;;;23.20;99.90;;;;;;1042944;28;20016;-64
2022/06/26 02:30:49;;;;;;;1.17;0.90;;;23.20;99.90;;;;;;1042372;28;20076;-64
2022/06/26 02:31:19;;;;;;;1.45;1.35;;;23.20;99.90;;;;;;1042826;28;20023;-65
2022/06/26 02:31:50;;;;;;;1.87;1.50;;;23.10;99.90;;;;;;1042785;28;20051;-63
2022/06/26 02:32:21;;;;;;;1.33;1.20;;;23.10;99.90;;;;;;1043330;28;20096;-63
2022/06/26 02:32:52;;;;;;;3.00;1.80;;;23.20;99.90;;;;;;1044670;28;20245;-64
2022/06/26 02:33:23;;;;;;;1.88;1.63;;;23.10;99.90;;;;;;1047289;28;20024;-63
2022/06/26 02:33:54;;;;;;;1.73;1.43;;;23.10;99.90;;;;;;1047023;28;20024;-63
2022/06/26 02:34:25;;;;;;;1.55;1.45;;;23.10;99.90;;;;;;1046883;28;20769;-63
2022/06/26 02:34:56;;;;;;;1.83;1.60;;;23.10;99.90;;;;;;1046501;28;20144;-63
2022/06/26 02:35:28;;;;;;;1.40;1.20;;;23.10;99.90;;;;;;1047079;28;20040;-63
2022/06/26 02:35:59;;;;;;;1.30;1.20;;;23.10;99.90;;;;;;1046461;28;20021;-63
2022/06/26 02:36:30;;;;;;;1.17;1.10;;;23.10;99.90;;;;;;1047427;28;20494;-63
2022/06/26 02:37:01;;;;;;;1.73;1.40;;;23.10;99.90;;;;;;1046997;28;20526;-63
2022/06/26 02:37:31;;;;;;;2.70;1.40;;;23.10;99.90;;;;;;1047386;28;20416;-63
2022/06/26 02:38:02;;;;;;;1.50;1.00;;;23.10;99.90;;;;;;1046947;28;20024;-63
2022/06/26 02:38:33;;;;;;;1.92;0.98;;;23.10;99.90;;;;;;1047402;28;20016;-63
2022/06/26 02:39:04;;;;;;;1.40;1.30;;;23.10;99.90;;;;;;1047010;28;20099;-63
2022/06/26 02:39:36;;;;;;;2.00;1.20;;;23.10;99.90;;;;;;1047250;28;20021;-63
2022/06/26 02:40:08;;;;;;;1.20;1.15;;;23.10;99.90;;;;;;1046957;28;20035;-63
2022/06/26 02:40:38;;;;;;;1.70;1.60;;;23.10;99.90;;;;;;1043634;28;20035;-63
2022/06/26 02:41:09;;;;;;;1.47;1.20;;;23.10;99.90;;;;;;1042502;28;20064;-63
2022/06/26 02:41:40;;;;;;;2.43;2.03;;;23.10;99.90;;;;;;1042675;28;20101;-63
2022/06/26 02:42:10;;;;;;;1.60;1.50;;;23.10;99.90;;;;;;1042523;28;20055;-63
2022/06/26 02:42:41;;;;;;;1.90;1.43;;;23.10;99.90;;;;;;1042786;28;20138;-63
2022/06/26 02:43:12;;;;;;;1.83;1.20;;;23.10;99.90;;;;;;1042956;28;20048;-63
2022/06/26 02:43:43;;;;;;;2.10;1.58;;;23.10;99.90;;;;;;1042941;28;20445;-63
2022/06/26 02:44:15;;;;;;;1.87;1.27;;;23.10;99.90;;;;;;1042959;28;20115;-64
2022/06/26 02:44:46;;;;;;;2.60;1.20;;;23.10;99.90;;;;;;1043118;28;20086;-63
2022/06/26 02:45:17;;;;;;;1.10;1.00;;;23.10;99.90;;;;;;1042777;28;20025;-63
2022/06/26 02:45:48;;;;;;;3.03;1.38;;;23.10;99.90;;;;;;1043061;28;20112;-63
2022/06/26 02:46:18;;;;;;;1.53;1.40;;;23.10;99.90;;;;;;1042337;28;20049;-63